Time,TemperatureF,DewpointF,PressureIn,WindDirection,WindDirectionDegrees,WindSpeedMPH,WindSpeedGustMPH,Humidity,HourlyPrecipIn,Conditions,Clouds,dailyrainin,SolarRadiationWatts/m^2,SoftwareType,DateUTC
2013-08-04 00:02:00,53.0,53.0,-100.00,North,356,6.0,14.0,100,0.00,,,-99.99,1.000000,,2013-08-04 07:02:00,
2013-08-04 00:33:00,51.0,51.0,-100.00,NNE,16,0.0,10.0,100,0.00,,,0.00,1.000000,,2013-08-04 07:33:00,
2013-08-04 00:42:00,51.0,51.0,-100.00,NNE,16,0.0,10.0,100,0.00,,,0.00,1.000000,,2013-08-04 07:42:00,
2013-08-04 00:53:00,51.0,51.0,-100.00,NNE,16,0.0,10.0,100,0.00,,,0.00,1.000000,,2013-08-04 07:53:00,
2013-08-04 01:02:00,51.0,51.0,-100.00,NNE,16,0.0,10.0,100,0.00,,,0.00,1.000000,,2013-08-04 08:02:00,
2013-08-04 01:33:00,50.0,50.0,-100.00,WNW,282,0.0,6.0,100,0.00,,,0.00,2.000000,,2013-08-04 08:33:00,
2013-08-04 01:43:00,50.0,50.0,-100.00,WNW,282,0.0,6.0,100,0.00,,,0.00,2.000000,,2013-08-04 08:43:00,
2013-08-04 01:53:00,50.0,50.0,-100.00,WNW,282,0.0,6.0,100,0.00,,,0.00,2.000000,,2013-08-04 08:53:00,
2013-08-04 02:02:00,50.0,50.0,-100.00,WNW,282,0.0,6.0,100,0.00,,,0.00,2.000000,,2013-08-04 09:02:00,
2013-08-04 02:32:00,52.0,52.0,-100.00,South,180,0.0,0.0,100,0.00,,,0.00,2.000000,,2013-08-04 09:32:00,
2013-08-04 02:43:00,52.0,52.0,-100.00,South,180,0.0,0.0,100,0.00,,,0.00,2.000000,,2013-08-04 09:43:00,
2013-08-04 02:52:00,52.0,52.0,-100.00,South,180,0.0,0.0,100,0.00,,,0.00,2.000000,,2013-08-04 09:52:00,
2013-08-04 03:02:00,52.0,52.0,-100.00,South,180,0.0,0.0,100,0.00,,,0.00,2.000000,,2013-08-04 10:02:00,
2013-08-04 03:32:00,52.0,52.0,-100.00,WNW,295,0.0,4.0,100,0.00,,,0.00,2.000000,,2013-08-04 10:32:00,
2013-08-04 03:43:00,52.0,52.0,-100.00,WNW,295,0.0,4.0,100,0.00,,,0.00,2.000000,,2013-08-04 10:43:00,
2013-08-04 03:53:00,52.0,52.0,-100.00,WNW,295,0.0,4.0,100,0.00,,,0.00,2.000000,,2013-08-04 10:53:00,
2013-08-04 04:02:00,52.0,52.0,-100.00,WNW,295,0.0,4.0,100,0.00,,,0.00,2.000000,,2013-08-04 11:02:00,
2013-08-04 04:32:00,52.0,52.0,-100.00,West,272,0.0,0.0,100,0.00,,,0.00,2.000000,,2013-08-04 11:32:00,
2013-08-04 04:42:00,52.0,52.0,-100.00,West,272,0.0,0.0,100,0.00,,,0.00,2.000000,,2013-08-04 11:42:00,
2013-08-04 04:52:00,52.0,52.0,-100.00,West,272,0.0,0.0,100,0.00,,,0.00,2.000000,,2013-08-04 11:52:00,
2013-08-04 05:02:00,52.0,52.0,-100.00,West,272,0.0,0.0,100,0.00,,,0.00,2.000000,,2013-08-04 12:02:00,
2013-08-04 05:33:00,52.0,52.0,-100.00,WSW,241,0.0,4.0,100,0.00,,,0.00,2.000000,,2013-08-04 12:33:00,
2013-08-04 05:43:00,52.0,52.0,-100.00,WSW,241,0.0,4.0,100,0.00,,,0.00,2.000000,,2013-08-04 12:43:00,
2013-08-04 05:53:00,52.0,52.0,-100.00,WSW,241,0.0,4.0,100,0.00,,,0.00,2.000000,,2013-08-04 12:53:00,
2013-08-04 06:02:00,52.0,52.0,-100.00,WSW,241,0.0,4.0,100,0.00,,,0.00,2.000000,,2013-08-04 13:02:00,
2013-08-04 06:32:00,53.0,53.0,-100.00,North,9,0.0,2.0,100,0.00,,,0.00,2.000000,,2013-08-04 13:32:00,
2013-08-04 06:43:00,53.0,53.0,-100.00,North,9,0.0,2.0,100,0.00,,,0.00,2.000000,,2013-08-04 13:43:00,
2013-08-04 06:52:00,53.0,53.0,-100.00,North,9,0.0,2.0,100,0.00,,,0.00,2.000000,,2013-08-04 13:52:00,
2013-08-04 07:02:00,53.0,53.0,-100.00,North,9,0.0,2.0,100,0.00,,,0.00,2.000000,,2013-08-04 14:02:00,
2013-08-04 07:33:00,53.0,53.0,-100.00,NNE,23,1.0,3.0,100,0.00,,,-99.99,15.000000,,2013-08-04 14:33:00,
2013-08-04 07:43:00,53.0,53.0,-100.00,NNE,23,1.0,3.0,100,0.00,,,-99.99,15.000000,,2013-08-04 14:43:00,
2013-08-04 07:53:00,53.0,53.0,-100.00,NNE,23,1.0,3.0,100,0.00,,,-99.99,15.000000,,2013-08-04 14:53:00,
2013-08-04 08:02:00,53.0,53.0,-100.00,NNE,23,1.0,3.0,100,0.00,,,-99.99,15.000000,,2013-08-04 15:02:00,
2013-08-04 08:32:00,53.0,53.0,-100.00,NW,323,2.0,4.0,100,0.00,,,0.00,56.000000,,2013-08-04 15:32:00,
2013-08-04 08:43:00,53.0,53.0,-100.00,NW,323,2.0,4.0,100,0.00,,,0.00,56.000000,,2013-08-04 15:43:00,
2013-08-04 08:53:00,53.0,53.0,-100.00,NW,323,2.0,4.0,100,0.00,,,0.00,56.000000,,2013-08-04 15:53:00,
2013-08-04 09:01:00,53.0,53.0,-100.00,NW,323,2.0,4.0,100,0.00,,,0.00,56.000000,,2013-08-04 16:01:00,
2013-08-04 09:33:00,53.0,53.0,-100.00,North,349,6.0,9.0,100,0.00,,,0.00,142.000000,,2013-08-04 16:33:00,
2013-08-04 09:43:00,53.0,53.0,-100.00,North,349,6.0,9.0,100,0.00,,,0.00,142.000000,,2013-08-04 16:43:00,
2013-08-04 09:53:00,53.0,53.0,-100.00,North,349,6.0,9.0,100,0.00,,,0.00,142.000000,,2013-08-04 16:53:00,
2013-08-04 10:02:00,53.0,53.0,-100.00,North,349,6.0,9.0,100,0.00,,,0.00,142.000000,,2013-08-04 17:02:00,
2013-08-04 10:32:00,57.0,57.0,-100.00,North,8,5.0,10.0,100,0.00,,,0.00,289.000000,,2013-08-04 17:32:00,
2013-08-04 10:43:00,57.0,57.0,-100.00,North,8,5.0,10.0,100,0.00,,,0.00,289.000000,,2013-08-04 17:43:00,
2013-08-04 10:53:00,57.0,57.0,-100.00,North,8,5.0,10.0,100,0.00,,,0.00,289.000000,,2013-08-04 17:53:00,
2013-08-04 11:02:00,57.0,57.0,-100.00,North,8,5.0,10.0,100,0.00,,,0.00,289.000000,,2013-08-04 18:02:00,
2013-08-04 11:33:00,57.0,57.0,-100.00,North,358,11.0,15.0,100,0.00,,,0.00,488.000000,,2013-08-04 18:33:00,
2013-08-04 11:43:00,57.0,57.0,-100.00,North,358,11.0,15.0,100,0.00,,,0.00,488.000000,,2013-08-04 18:43:00,
2013-08-04 11:52:00,57.0,57.0,-100.00,North,358,11.0,15.0,100,0.00,,,0.00,488.000000,,2013-08-04 18:52:00,
2013-08-04 12:02:00,57.0,57.0,-100.00,North,358,11.0,15.0,100,0.00,,,0.00,488.000000,,2013-08-04 19:02:00,
2013-08-04 12:33:00,59.0,55.0,-100.00,North,358,11.0,20.0,88,0.00,,,0.00,826.000000,,2013-08-04 19:33:00,
2013-08-04 12:44:00,59.0,55.0,-100.00,North,358,11.0,20.0,88,0.00,,,0.00,826.000000,,2013-08-04 19:44:00,
2013-08-04 12:53:00,59.0,55.0,-100.00,North,358,11.0,20.0,88,0.00,,,0.00,826.000000,,2013-08-04 19:53:00,
2013-08-04 13:02:00,59.0,55.0,-100.00,North,358,11.0,20.0,88,0.00,,,0.00,826.000000,,2013-08-04 20:02:00,
2013-08-04 13:43:00,61.0,58.0,-100.00,North,353,11.0,21.0,89,0.00,,,0.00,814.000000,,2013-08-04 20:43:00,
2013-08-04 13:53:00,61.0,58.0,-100.00,North,353,11.0,21.0,89,0.00,,,0.00,814.000000,,2013-08-04 20:53:00,
2013-08-04 14:02:00,61.0,58.0,-100.00,North,353,11.0,21.0,89,0.00,,,0.00,814.000000,,2013-08-04 21:02:00,
2013-08-04 14:32:00,60.0,57.0,-100.00,North,353,13.0,22.0,91,0.00,,,0.00,838.000000,,2013-08-04 21:32:00,
2013-08-04 14:43:00,60.0,57.0,-100.00,North,353,13.0,22.0,91,0.00,,,0.00,838.000000,,2013-08-04 21:43:00,
2013-08-04 14:53:00,60.0,57.0,-100.00,North,353,13.0,22.0,91,0.00,,,0.00,838.000000,,2013-08-04 21:53:00,
2013-08-04 15:01:00,60.0,57.0,-100.00,North,353,13.0,22.0,91,0.00,,,0.00,838.000000,,2013-08-04 22:01:00,
2013-08-04 15:43:00,57.0,55.0,-100.00,NNW,348,13.0,24.0,94,0.00,,,0.00,671.000000,,2013-08-04 22:43:00,
2013-08-04 15:53:00,57.0,55.0,-100.00,NNW,348,13.0,24.0,94,0.00,,,0.00,671.000000,,2013-08-04 22:53:00,
2013-08-04 16:02:00,57.0,55.0,-100.00,NNW,348,13.0,24.0,94,0.00,,,0.00,671.000000,,2013-08-04 23:02:00,
2013-08-04 16:32:00,58.0,57.0,-100.00,North,349,12.0,21.0,96,0.00,,,0.00,533.000000,,2013-08-04 23:32:00,
2013-08-04 16:43:00,58.0,57.0,-100.00,North,349,12.0,21.0,96,0.00,,,0.00,533.000000,,2013-08-04 23:43:00,
2013-08-04 16:53:00,58.0,57.0,-100.00,North,349,12.0,21.0,96,0.00,,,0.00,533.000000,,2013-08-04 23:53:00,
2013-08-04 17:01:00,58.0,57.0,-100.00,North,349,12.0,21.0,96,0.00,,,0.00,533.000000,,2013-08-05 00:01:00,
2013-08-04 17:22:00,55.0,55.0,-100.00,NNW,347,12.0,22.0,100,0.00,,,0.00,344.000000,,2013-08-05 00:22:00,
2013-08-04 17:33:00,55.0,55.0,-100.00,NNW,347,12.0,22.0,100,0.00,,,0.00,344.000000,,2013-08-05 00:33:00,
2013-08-04 17:42:00,55.0,55.0,-100.00,NNW,347,12.0,22.0,100,0.00,,,0.00,344.000000,,2013-08-05 00:42:00,
2013-08-04 17:52:00,55.0,55.0,-100.00,NNW,347,12.0,22.0,100,0.00,,,0.00,344.000000,,2013-08-05 00:52:00,
2013-08-04 18:02:00,55.0,55.0,-100.00,NNW,347,12.0,22.0,100,0.00,,,0.00,344.000000,,2013-08-05 01:02:00,
2013-08-04 18:33:00,54.0,54.0,-100.00,NNW,345,10.0,24.0,100,0.00,,,0.00,231.000000,,2013-08-05 01:33:00,
2013-08-04 18:43:00,54.0,54.0,-100.00,NNW,345,10.0,24.0,100,0.00,,,0.00,231.000000,,2013-08-05 01:43:00,
2013-08-04 18:52:00,54.0,54.0,-100.00,NNW,345,10.0,24.0,100,0.00,,,0.00,231.000000,,2013-08-05 01:52:00,
2013-08-04 19:02:00,54.0,54.0,-100.00,NNW,345,10.0,24.0,100,0.00,,,0.00,231.000000,,2013-08-05 02:02:00,
2013-08-04 19:33:00,55.0,55.0,-100.00,North,352,12.0,23.0,100,0.00,,,0.00,130.000000,,2013-08-05 02:33:00,
2013-08-04 19:43:00,55.0,55.0,-100.00,North,352,12.0,23.0,100,0.00,,,0.00,130.000000,,2013-08-05 02:43:00,
2013-08-04 19:53:00,55.0,55.0,-100.00,North,352,12.0,23.0,100,0.00,,,0.00,130.000000,,2013-08-05 02:53:00,
2013-08-04 20:02:00,55.0,55.0,-100.00,North,352,12.0,23.0,100,0.00,,,0.00,130.000000,,2013-08-05 03:02:00,
2013-08-04 20:32:00,53.0,53.0,-100.00,North,355,12.0,29.0,100,0.00,,,0.00,47.000000,,2013-08-05 03:32:00,
2013-08-04 20:42:00,53.0,53.0,-100.00,North,355,12.0,29.0,100,0.00,,,0.00,47.000000,,2013-08-05 03:42:00,
2013-08-04 20:53:00,53.0,53.0,-100.00,North,355,12.0,29.0,100,0.00,,,0.00,47.000000,,2013-08-05 03:53:00,
2013-08-04 21:02:00,53.0,53.0,-100.00,North,355,12.0,29.0,100,0.00,,,0.00,47.000000,,2013-08-05 04:02:00,
2013-08-04 21:32:00,53.0,53.0,-100.00,North,352,12.0,23.0,100,0.00,,,0.00,8.000000,,2013-08-05 04:32:00,
2013-08-04 21:43:00,53.0,53.0,-100.00,North,352,12.0,23.0,100,0.00,,,0.00,8.000000,,2013-08-05 04:43:00,
2013-08-04 21:52:00,53.0,53.0,-100.00,North,352,12.0,23.0,100,0.00,,,0.00,8.000000,,2013-08-05 04:52:00,
2013-08-04 22:02:00,53.0,53.0,-100.00,North,352,12.0,23.0,100,0.00,,,0.00,8.000000,,2013-08-05 05:02:00,
2013-08-04 22:32:00,54.0,54.0,-100.00,North,2,10.0,18.0,100,0.00,,,0.00,2.000000,,2013-08-05 05:32:00,
2013-08-04 22:43:00,54.0,54.0,-100.00,North,2,10.0,18.0,100,0.00,,,0.00,2.000000,,2013-08-05 05:43:00,
2013-08-04 22:53:00,54.0,54.0,-100.00,North,2,10.0,18.0,100,0.00,,,0.00,2.000000,,2013-08-05 05:53:00,
2013-08-04 23:01:00,54.0,54.0,-100.00,North,2,10.0,18.0,100,0.00,,,0.00,2.000000,,2013-08-05 06:01:00,
2013-08-04 23:32:00,54.0,54.0,-100.00,North,350,5.0,16.0,100,0.00,,,0.00,3.000000,,2013-08-05 06:32:00,
2013-08-04 23:43:00,54.0,54.0,-100.00,North,350,5.0,16.0,100,0.00,,,0.00,3.000000,,2013-08-05 06:43:00,
2013-08-04 23:52:00,54.0,54.0,-100.00,North,350,5.0,16.0,100,0.00,,,0.00,3.000000,,2013-08-05 06:52:00,